Time;durP1;ratioP1;P1;durP2;ratioP2;P2;SDS_P1;SDS_P2;PMS_P1;PMS_P2;Temp;Humidity;BMP_temperature;BMP_pressure;BME280_temperature;BME280_humidity;BME280_pressure;Samples;Min_cycle;Max_cycle;Signal;HPM_P1;HPM_P2
2022/08/17 00:00:56;;;;;;;9.85;6.80;;;18.30;99.90;;;;;;5049388;28;20094;-72
2022/08/17 00:03:28;;;;;;;7.63;5.70;;;18.20;99.90;;;;;;5050047;28;20113;-72
2022/08/17 00:05:57;;;;;;;13.13;7.18;;;18.30;99.90;;;;;;5051185;28;20048;-73
2022/08/17 00:08:27;;;;;;;10.02;6.32;;;18.30;99.90;;;;;;5035841;28;20025;-73
2022/08/17 00:10:53;;;;;;;9.50;5.88;;;18.30;99.90;;;;;;5031664;28;20119;-71
2022/08/17 00:13:28;;;;;;;10.25;6.38;;;18.30;99.90;;;;;;5045929;28;20094;-72
2022/08/17 00:15:58;;;;;;;15.70;7.00;;;18.20;99.90;;;;;;5051024;28;20033;-72
2022/08/17 00:18:24;;;;;;;8.90;6.45;;;18.30;99.90;;;;;;5038648;28;20469;-73
2022/08/17 00:20:52;;;;;;;9.13;6.40;;;18.20;99.90;;;;;;5032061;28;20087;-72
2022/08/17 00:23:18;;;;;;;10.45;6.55;;;18.10;99.90;;;;;;5029143;28;20052;-72
2022/08/17 00:25:45;;;;;;;12.25;6.60;;;18.20;99.90;;;;;;5040054;28;20029;-72
2022/08/17 00:28:11;;;;;;;;;;;18.10;99.90;;;;;;5037204;28;20033;-73
2022/08/17 00:30:38;;;;;;;10.13;6.55;;;18.10;99.90;;;;;;5029970;28;19925;-72
2022/08/17 00:33:15;;;;;;;14.40;7.25;;;18.10;99.90;;;;;;5030370;28;20021;-72
2022/08/17 00:35:41;;;;;;;;;;;18.10;99.90;;;;;;5032174;28;20037;-73
2022/08/17 00:38:08;;;;;;;10.68;6.90;;;18.00;99.90;;;;;;5048773;28;20579;-72
2022/08/17 00:40:47;;;;;;;11.30;7.00;;;18.00;99.90;;;;;;5042802;28;20050;-72
2022/08/17 00:43:43;;;;;;;13.00;6.82;;;18.00;99.90;;;;;;5038239;28;20032;-72
2022/08/17 00:46:14;;;;;;;9.10;5.82;;;17.90;99.90;;;;;;5048406;28;20090;-72
2022/08/17 00:48:40;;;;;;;13.07;6.43;;;17.90;99.90;;;;;;5048718;28;20024;-72
2022/08/17 00:51:19;;;;;;;;;;;17.90;99.90;;;;;;5049877;28;20019;-72
2022/08/17 00:53:52;;;;;;;11.95;6.45;;;17.90;99.90;;;;;;5050100;28;19904;-73
2022/08/17 00:56:26;;;;;;;9.48;6.78;;;17.90;99.90;;;;;;5050108;28;20471;-73
2022/08/17 00:58:54;;;;;;;12.30;6.07;;;18.00;99.90;;;;;;5048994;28;20029;-73
2022/08/17 01:01:20;;;;;;;9.90;6.13;;;17.90;99.90;;;;;;5039557;28;20874;-74
2022/08/17 01:03:46;;;;;;;9.75;6.82;;;17.90;99.90;;;;;;5029726;28;20036;-73
2022/08/17 01:06:12;;;;;;;11.05;6.18;;;17.90;99.90;;;;;;5030125;28;20374;-73
2022/08/17 01:08:39;;;;;;;9.83;6.57;;;17.90;99.90;;;;;;5037469;28;20036;-72
2022/08/17 01:11:06;;;;;;;8.30;6.70;;;18.00;99.90;;;;;;5048609;28;20821;-72
2022/08/17 01:13:43;;;;;;;16.67;6.88;;;18.00;99.90;;;;;;5042742;28;20057;-72
2022/08/17 01:16:20;;;;;;;9.73;6.22;;;18.00;99.90;;;;;;5033320;28;20044;-72
2022/08/17 01:18:48;;;;;;;;;;;18.00;99.90;;;;;;5033933;28;20064;-72
2022/08/17 01:21:29;;;;;;;11.20;6.68;;;18.00;99.90;;;;;;5034551;28;19909;-72
2022/08/17 01:23:55;;;;;;;11.25;6.72;;;17.90;99.90;;;;;;5033962;28;20112;-73
2022/08/17 01:26:21;;;;;;;10.07;6.78;;;17.90;99.90;;;;;;5033910;28;20080;-73
2022/08/17 01:28:47;;;;;;;11.60;6.78;;;17.90;99.90;;;;;;5044223;28;20037;-73
2022/08/17 01:31:13;;;;;;;11.67;7.10;;;17.90;99.90;;;;;;5032269;28;20033;-73
2022/08/17 01:33:39;;;;;;;8.93;6.07;;;17.90;99.90;;;;;;5032394;28;20018;-73
2022/08/17 01:36:06;;;;;;;12.53;7.57;;;17.90;99.90;;;;;;5033627;28;20036;-73
2022/08/17 01:38:33;;;;;;;13.35;7.78;;;17.90;99.90;;;;;;5043366;28;20017;-72
2022/08/17 01:41:06;;;;;;;10.38;6.15;;;17.80;99.90;;;;;;5053536;28;20416;-73
2022/08/17 01:43:40;;;;;;;15.27;6.63;;;17.80;99.90;;;;;;5040403;28;20076;-73
2022/08/17 01:46:06;;;;;;;9.68;6.75;;;17.80;99.90;;;;;;5033691;28;20293;-73
2022/08/17 01:48:35;;;;;;;9.35;6.97;;;17.80;99.90;;;;;;5038651;28;20021;-73
2022/08/17 01:51:01;;;;;;;9.63;6.80;;;17.90;99.90;;;;;;5034213;28;20500;-72
2022/08/17 01:53:31;;;;;;;8.40;6.73;;;17.80;99.90;;;;;;5033430;28;20033;-72
2022/08/17 01:56:01;;;;;;;13.30;7.50;;;17.70;99.90;;;;;;5032228;28;20301;-72
2022/08/17 01:58:27;;;;;;;9.75;6.25;;;17.80;99.90;;;;;;5049480;28;20029;-72
2022/08/17 02:00:54;;;;;;;9.87;7.23;;;17.80;99.90;;;;;;5052113;28;20052;-73
2022/08/17 02:03:22;;;;;;;9.55;6.53;;;17.80;99.90;;;;;;5053188;28;20300;-72
2022/08/17 02:05:48;;;;;;;9.38;6.50;;;17.80;99.90;;;;;;5051760;28;20055;-72
2022/08/17 02:08:19;;;;;;;9.45;6.97;;;17.80;99.90;;;;;;5050571;28;20545;-73
2022/08/17 02:10:46;;;;;;;9.43;6.65;;;17.80;99.90;;;;;;5049629;28;20127;-73
2022/08/17 02:13:13;;;;;;;8.15;6.30;;;17.90;99.90;;;;;;5039852;28;20068;-73
2022/08/17 02:15:39;;;;;;;;;;;17.90;99.90;;;;;;5033583;28;20125;-73
2022/08/17 02:18:05;;;;;;;10.18;5.88;;;17.90;99.90;;;;;;5039293;28;19912;-73
2022/08/17 02:20:31;;;;;;;9.40;5.85;;;17.90;99.90;;;;;;5053040;28;20040;-73
2022/08/17 02:22:59;;;;;;;8.83;6.37;;;17.90;99.90;;;;;;5052647;28;20033;-73
2022/08/17 02:25:27;;;;;;;10.00;6.68;;;17.90;99.90;;;;;;5050470;28;20036;-73
2022/08/17 02:27:53;;;;;;;11.77;6.28;;;17.80;99.90;;;;;;5035120;28;20498;-73
2022/08/17 02:30:19;;;;;;;9.53;6.03;;;17.70;99.90;;;;;;5032907;28;20033;-72
2022/08/17 02:32:45;;;;;;;10.77;6.70;;;17.70;99.90;;;;;;5031317;28;20079;-73
2022/08/17 02:35:12;;;;;;;10.57;6.35;;;17.60;99.90;;;;;;5032890;28;20030;-72
2022/08/17 02:37:38;;;;;;;;;;;17.60;99.90;;;;;;5042709;28;20063;-73
2022/08/17 02:40:05;;;;;;;8.82;6.18;;;17.60;99.90;;;;;;5039174;28;19921;-72
2022/08/17 02:42:37;;;;;;;10.70;6.45;;;17.60;99.90;;;;;;5043143;28;20320;-72
2022/08/17 02:45:09;;;;;;;9.38;6.75;;;17.60;99.90;;;;;;5050918;28;20032;-73
2022/08/17 02:47:35;;;;;;;13.02;6.75;;;17.60;99.90;;;;;;5045454;28;20100;-73
2022/08/17 02:50:01;;;;;;;9.87;6.10;;;17.60;99.90;;;;;;5031006;28;20244;-73
2022/08/17 02:52:33;;;;;;;9.57;6.63;;;17.50;99.90;;;;;;5030913;28;20038;-73
2022/08/17 02:54:58;;;;;;;9.93;6.90;;;17.40;99.90;;;;;;5032007;28;20119;-73
2022/08/17 02:57:24;;;;;;;9.00;7.07;;;17.40;99.90;;;;;;5046934;28;20072;-73
2022/08/17 02:59:50;;;;;;;13.20;6.60;;;17.40;99.90;;;;;;5050654;28;20033;-73
2022/08/17 03:02:15;;;;;;;10.63;6.90;;;17.30;99.90;;;;;;5050624;28;20543;-73
2022/08/17 03:04:41;;;;;;;10.67;7.07;;;17.30;99.90;;;;;;5041182;28;20025;-73
2022/08/17 03:07:07;;;;;;;12.07;7.10;;;17.30;99.90;;;;;;5045042;28;20032;-73
2022/08/17 03:09:32;;;;;;;11.97;6.83;;;17.30;99.90;;;;;;5032051;28;20065;-73
2022/08/17 03:12:07;;;;;;;11.30;7.00;;;17.30;99.90;;;;;;5041152;28;20028;-73
2022/08/17 03:14:36;;;;;;;10.05;6.35;;;17.40;99.90;;;;;;5042394;28;20037;-73
2022/08/17 03:17:02;;;;;;;9.20;6.47;;;17.40;99.90;;;;;;5032512;28;20072;-74
2022/08/17 03:19:27;;;;;;;10.20;7.07;;;17.40;99.90;;;;;;5032986;28;20469;-73
2022/08/17 03:21:53;;;;;;;10.90;6.97;;;17.50;99.90;;;;;;5031794;28;20381;-73
2022/08/17 03:24:19;;;;;;;10.53;7.63;;;17.50;99.90;;;;;;5031781;28;20037;-72
2022/08/17 03:26:44;;;;;;;11.53;8.27;;;17.60;99.90;;;;;;5045379;28;20044;-73
2022/08/17 03:29:17;;;;;;;10.43;7.43;;;17.70;99.90;;;;;;5051574;28;20036;-74
2022/08/17 03:31:46;;;;;;;13.50;6.32;;;17.80;99.90;;;;;;5051277;28;20029;-72
2022/08/17 03:34:14;;;;;;;11.27;6.65;;;17.60;99.90;;;;;;5051133;28;20049;-73
2022/08/17 03:36:39;;;;;;;10.75;7.22;;;17.80;99.90;;;;;;5040709;28;20064;-73
2022/08/17 03:39:05;;;;;;;11.97;7.10;;;17.90;99.90;;;;;;5029537;28;20050;-73
2022/08/17 03:41:31;;;;;;;12.13;6.77;;;17.90;99.90;;;;;;5040816;28;20029;-73
2022/08/17 03:43:57;;;;;;;8.98;7.15;;;17.90;99.90;;;;;;5051123;28;20465;-73
2022/08/17 03:57:23;;;;;;;9.88;7.38;;;18.00;99.90;;;;;;5051093;28;20032;-73
2022/08/17 03:59:49;;;;;;;11.57;7.65;;;18.00;99.90;;;;;;5050962;28;20160;-74
2022/08/17 04:02:23;;;;;;;9.75;7.22;;;18.00;99.90;;;;;;5049337;28;20532;-74
2022/08/17 04:04:49;;;;;;;11.93;6.53;;;18.00;99.90;;;;;;5050877;28;20048;-73
2022/08/17 04:07:15;;;;;;;8.82;6.90;;;18.00;99.90;;;;;;5030290;28;20030;-74
2022/08/17 04:09:41;;;;;;;10.52;7.40;;;18.00;99.90;;;;;;5029387;28;20041;-71
2022/08/17 04:12:08;;;;;;;8.65;7.07;;;18.00;99.90;;;;;;5029620;28;20051;-73
2022/08/17 04:14:37;;;;;;;12.35;7.38;;;18.00;99.90;;;;;;5030868;28;20126;-73
2022/08/17 04:17:03;;;;;;;9.88;7.50;;;18.00;99.90;;;;;;5044754;28;20120;-73
2022/08/17 04:19:28;;;;;;;9.88;6.80;;;18.10;99.90;;;;;;5050666;28;20479;-73
2022/08/17 04:21:56;;;;;;;11.07;7.63;;;18.10;99.90;;;;;;5050461;28;20029;-72
2022/08/17 04:24:22;;;;;;;11.52;7.15;;;18.00;99.90;;;;;;5047777;28;20040;-73
2022/08/17 04:26:48;;;;;;;10.50;7.43;;;18.20;99.90;;;;;;5029362;28;20036;-73
2022/08/17 04:29:15;;;;;;;9.90;7.33;;;18.30;99.90;;;;;;5030257;28;20038;-72
2022/08/17 04:31:41;;;;;;;11.13;7.28;;;18.40;99.90;;;;;;5028867;28;20017;-73
2022/08/17 04:34:08;;;;;;;9.30;6.35;;;18.30;99.90;;;;;;5030201;28;20037;-72
2022/08/17 04:36:34;;;;;;;11.40;7.95;;;18.40;99.90;;;;;;5045031;28;20059;-73
2022/08/17 04:39:00;;;;;;;9.55;7.25;;;18.40;99.90;;;;;;5045700;28;20103;-73
2022/08/17 04:44:11;;;;;;;11.30;7.13;;;18.60;99.90;;;;;;5038588;28;20048;-72
2022/08/17 04:46:37;;;;;;;10.77;7.28;;;18.70;99.90;;;;;;5050041;28;20037;-72
2022/08/17 04:49:06;;;;;;;10.07;7.55;;;18.90;99.90;;;;;;5048265;28;20041;-72
2022/08/17 04:51:40;;;;;;;15.40;7.65;;;18.80;99.90;;;;;;5049772;28;20025;-72
2022/08/17 04:54:10;;;;;;;10.70;7.75;;;19.00;99.90;;;;;;5045757;28;20033;-73
2022/08/17 04:56:36;;;;;;;10.05;6.68;;;19.10;99.90;;;;;;5028653;28;20028;-72
2022/08/17 04:59:04;;;;;;;8.90;6.80;;;19.00;99.90;;;;;;5028686;28;20113;-72
2022/08/17 05:01:34;;;;;;;10.00;7.40;;;19.10;99.90;;;;;;5030045;28;20041;-73
2022/08/17 05:04:03;;;;;;;14.27;6.70;;;19.10;99.90;;;;;;5041755;28;20365;-73
2022/08/17 05:06:29;;;;;;;8.73;6.53;;;19.10;99.90;;;;;;5048684;28;20025;-73
2022/08/17 05:08:56;;;;;;;11.88;7.93;;;19.20;99.90;;;;;;5048934;28;20103;-72
2022/08/17 05:11:24;;;;;;;11.82;7.72;;;19.30;99.90;;;;;;5048175;28;20141;-72
2022/08/17 05:13:52;;;;;;;11.02;7.18;;;19.20;99.90;;;;;;5050009;28;20021;-72
2022/08/17 05:16:20;;;;;;;10.82;7.45;;;19.30;99.90;;;;;;5048455;28;20362;-72
2022/08/17 05:18:46;;;;;;;12.32;8.07;;;19.30;99.90;;;;;;5039645;28;20009;-73
2022/08/17 05:21:12;;;;;;;10.50;7.87;;;19.40;99.90;;;;;;5030007;28;20041;-72
2022/08/17 05:23:38;;;;;;;9.30;7.57;;;19.40;99.90;;;;;;5028560;28;20037;-73
2022/08/17 05:26:04;;;;;;;16.45;8.35;;;19.50;99.90;;;;;;5044742;28;20124;-73
2022/08/17 05:28:30;;;;;;;12.50;8.77;;;19.60;99.90;;;;;;5049649;28;20104;-73
2022/08/17 05:30:58;;;;;;;11.73;7.63;;;19.60;99.90;;;;;;5050055;28;20139;-72
2022/08/17 05:33:26;;;;;;;10.35;8.48;;;19.70;99.90;;;;;;5044339;28;20068;-73
2022/08/17 05:35:54;;;;;;;9.10;6.90;;;19.80;99.90;;;;;;5030080;28;20032;-73
2022/08/17 05:38:23;;;;;;;10.15;7.18;;;19.80;99.90;;;;;;5029699;28;20359;-72
2022/08/17 05:40:49;;;;;;;12.73;8.32;;;19.80;99.90;;;;;;5030448;28;20100;-73
2022/08/17 05:43:20;;;;;;;11.13;7.57;;;19.90;99.90;;;;;;5030693;28;20064;-72
2022/08/17 05:45:55;;;;;;;10.63;7.45;;;20.00;99.90;;;;;;5029739;28;20065;-72
2022/08/17 05:48:20;;;;;;;12.60;9.55;;;20.10;99.90;;;;;;5030039;28;20040;-72
2022/08/17 05:51:01;;;;;;;14.07;9.10;;;20.00;99.90;;;;;;5030233;28;20038;-73
2022/08/17 05:54:04;;;;;;;12.05;6.82;;;20.20;99.90;;;;;;5029885;28;20726;-73
2022/08/17 05:56:51;;;;;;;9.75;7.90;;;20.20;99.90;;;;;;5043559;28;20041;-72
2022/08/17 05:59:47;;;;;;;10.20;7.88;;;20.20;99.90;;;;;;5049533;28;20037;-73
2022/08/17 06:02:51;;;;;;;13.57;7.93;;;20.30;99.90;;;;;;5053105;28;20480;-72
2022/08/17 06:05:35;;;;;;;12.05;7.55;;;20.30;99.90;;;;;;5035061;28;20037;-72
2022/08/17 06:08:24;;;;;;;10.75;7.43;;;20.30;99.90;;;;;;5032949;28;20029;-73
2022/08/17 06:10:52;;;;;;;11.40;7.22;;;20.50;99.90;;;;;;5034594;28;20512;-73
2022/08/17 06:13:53;;;;;;;8.73;6.80;;;20.70;99.90;;;;;;5034003;28;20030;-73
2022/08/17 06:16:25;;;;;;;11.35;7.07;;;20.80;99.90;;;;;;5033363;28;20045;-72
2022/08/17 06:19:10;;;;;;;10.82;6.65;;;20.90;99.90;;;;;;5035799;28;20384;-73
2022/08/17 06:21:41;;;;;;;13.18;7.35;;;20.90;99.90;;;;;;5052549;28;20499;-73
2022/08/17 06:24:41;;;;;;;11.25;6.93;;;20.90;99.90;;;;;;5052867;28;20453;-72
2022/08/17 06:27:18;;;;;;;10.52;6.60;;;21.10;99.90;;;;;;5034411;28;20036;-72
2022/08/17 06:29:49;;;;;;;9.35;6.75;;;21.20;99.90;;;;;;5032036;28;20044;-73
2022/08/17 06:32:16;;;;;;;9.88;6.03;;;21.30;99.90;;;;;;5032435;28;20029;-72
2022/08/17 06:34:43;;;;;;;10.68;6.45;;;21.50;99.90;;;;;;5040554;28;20032;-71
2022/08/17 06:37:38;;;;;;;9.95;6.63;;;21.60;99.90;;;;;;5052229;28;20166;-72
2022/08/17 06:40:09;;;;;;;9.60;6.85;;;21.80;99.90;;;;;;5050497;28;20499;-72
2022/08/17 06:42:57;;;;;;;8.52;5.70;;;21.80;99.90;;;;;;5049185;28;20431;-72
2022/08/17 06:45:34;;;;;;;9.82;7.28;;;21.90;99.90;;;;;;5052530;28;20126;-71
2022/08/17 06:48:15;;;;;;;;;;;22.10;99.90;;;;;;5052691;28;20079;-73
2022/08/17 06:50:49;;;;;;;11.15;6.13;;;22.20;99.90;;;;;;5050248;28;19952;-72
2022/08/17 06:53:36;;;;;;;10.75;6.47;;;22.30;99.90;;;;;;5050703;28;20071;-72
2022/08/17 06:56:09;;;;;;;9.45;6.65;;;22.30;99.90;;;;;;5045831;28;20021;-72
2022/08/17 06:58:37;;;;;;;10.68;6.22;;;22.30;99.90;;;;;;5035577;28;20060;-72
2022/08/17 07:01:14;;;;;;;11.52;7.35;;;22.30;99.90;;;;;;5030882;28;20039;-73
2022/08/17 07:03:56;;;;;;;11.43;6.50;;;22.30;99.90;;;;;;5031796;28;20441;-72
2022/08/17 07:06:25;;;;;;;11.05;6.47;;;22.30;99.90;;;;;;5032655;28;20160;-72
2022/08/17 07:09:01;;;;;;;10.00;6.30;;;22.30;99.90;;;;;;5030404;28;20022;-72
2022/08/17 07:11:47;;;;;;;10.05;6.88;;;22.30;99.90;;;;;;5041964;28;20092;-71
2022/08/17 07:14:38;;;;;;;12.27;6.88;;;22.40;99.90;;;;;;5030620;28;20481;-72
2022/08/17 07:17:17;;;;;;;9.60;6.20;;;22.50;99.90;;;;;;5031873;28;20037;-72
2022/08/17 07:19:44;;;;;;;10.15;7.68;;;22.50;99.90;;;;;;5049449;28;20487;-73
2022/08/17 07:22:33;;;;;;;8.38;6.68;;;22.70;99.90;;;;;;5051697;28;20116;-72
2022/08/17 07:25:03;;;;;;;9.00;5.97;;;22.80;99.90;;;;;;5048507;28;20329;-73
2022/08/17 07:27:35;;;;;;;10.55;6.88;;;23.00;99.90;;;;;;5031128;28;20099;-72
2022/08/17 07:30:21;;;;;;;9.30;6.35;;;23.10;99.90;;;;;;5031417;28;20040;-72
2022/08/17 07:32:47;;;;;;;7.60;6.05;;;23.20;99.90;;;;;;5030964;28;20029;-72
2022/08/17 07:35:16;;;;;;;;;;;23.30;99.90;;;;;;5045161;28;20397;-72
2022/08/17 07:37:52;;;;;;;9.18;6.28;;;23.40;99.90;;;;;;5050776;28;20004;-71
2022/08/17 07:40:27;;;;;;;10.87;7.17;;;23.50;99.90;;;;;;5046997;28;20057;-72
2022/08/17 07:43:01;;;;;;;7.43;6.03;;;23.60;99.90;;;;;;5031125;28;20294;-72
2022/08/17 07:48:19;;;;;;;9.80;6.20;;;23.70;99.90;;;;;;5031004;28;20500;-72
2022/08/17 07:50:45;;;;;;;8.70;6.55;;;23.90;99.90;;;;;;5048442;28;20029;-73
2022/08/17 07:53:21;;;;;;;10.17;7.03;;;24.00;99.90;;;;;;5031224;28;20079;-73
2022/08/17 07:55:47;;;;;;;8.07;6.22;;;24.00;99.90;;;;;;5039024;28;20032;-67
2022/08/17 07:58:17;;;;;;;;;;;24.10;99.90;;;;;;5051295;28;20056;-66
2022/08/17 08:00:44;;;;;;;8.40;6.50;;;24.10;99.90;;;;;;5040904;28;19920;-66
2022/08/17 08:03:14;;;;;;;;;;;24.20;99.90;;;;;;5030499;28;20362;-66
2022/08/17 08:05:56;;;;;;;9.02;6.18;;;24.20;99.90;;;;;;5031452;28;19916;-66
2022/08/17 08:08:29;;;;;;;12.48;7.80;;;24.30;99.90;;;;;;5041706;28;20021;-66
2022/08/17 08:11:16;;;;;;;10.10;6.60;;;24.40;99.90;;;;;;5042766;28;20064;-67
2022/08/17 08:13:44;;;;;;;;;;;24.60;99.90;;;;;;5030647;28;20022;-66
2022/08/17 08:16:23;;;;;;;9.25;6.85;;;24.80;99.90;;;;;;5029648;28;19924;-67
2022/08/17 08:18:52;;;;;;;9.93;7.10;;;24.90;99.90;;;;;;5031061;28;20033;-67
2022/08/17 08:21:50;;;;;;;11.95;6.93;;;24.90;99.90;;;;;;5030422;28;20439;-67
2022/08/17 08:24:18;;;;;;;8.30;6.70;;;25.00;99.90;;;;;;5029724;28;20390;-67
2022/08/17 08:27:09;;;;;;;8.55;6.80;;;25.20;99.90;;;;;;5031082;28;20271;-67
2022/08/17 08:30:04;;;;;;;9.88;6.55;;;25.40;99.90;;;;;;5030245;28;20029;-67
2022/08/17 08:32:46;;;;;;;11.02;7.28;;;25.60;99.90;;;;;;5029973;28;20057;-67
2022/08/17 08:35:25;;;;;;;13.15;7.60;;;25.80;99.90;;;;;;5030118;28;20053;-66
2022/08/17 08:38:26;;;;;;;9.85;6.93;;;26.10;99.90;;;;;;5043888;28;20411;-68
2022/08/17 08:41:02;;;;;;;9.80;7.80;;;26.30;99.90;;;;;;5046520;28;20404;-66
2022/08/17 08:43:54;;;;;;;11.68;7.25;;;26.40;99.90;;;;;;5029827;28;20077;-66
2022/08/17 08:46:29;;;;;;;11.32;6.68;;;26.60;99.90;;;;;;5029922;28;20478;-66
2022/08/17 08:49:17;;;;;;;10.07;6.57;;;26.60;99.90;;;;;;5029621;28;20056;-66
2022/08/17 08:51:54;;;;;;;12.77;7.10;;;26.70;99.90;;;;;;5029646;28;20038;-66
2022/08/17 08:54:34;;;;;;;11.15;7.05;;;26.80;99.90;;;;;;5029819;28;20037;-66
2022/08/17 08:57:17;;;;;;;10.48;7.10;;;26.80;99.90;;;;;;5039585;28;20380;-67
2022/08/17 09:00:06;;;;;;;11.63;7.18;;;26.70;99.90;;;;;;5048067;28;20103;-67
2022/08/17 09:02:57;;;;;;;11.43;7.38;;;26.60;99.90;;;;;;5049752;28;20504;-66
2022/08/17 09:05:47;;;;;;;9.05;7.00;;;26.90;99.90;;;;;;5049996;28;20104;-67
2022/08/17 09:08:42;;;;;;;8.57;6.78;;;27.20;99.90;;;;;;5046033;28;20033;-67
2022/08/17 09:11:22;;;;;;;9.95;6.95;;;27.30;99.90;;;;;;5030577;28;20050;-67
2022/08/17 09:14:13;;;;;;;9.90;7.20;;;27.40;99.90;;;;;;5048150;28;20034;-66
2022/08/17 09:17:07;;;;;;;11.30;7.18;;;27.30;99.90;;;;;;5049128;28;20029;-66
2022/08/17 09:19:47;;;;;;;10.80;7.43;;;27.30;99.90;;;;;;5032442;28;20254;-66
2022/08/17 09:22:42;;;;;;;10.43;7.30;;;27.30;99.90;;;;;;5029440;28;20029;-66
2022/08/17 09:25:33;;;;;;;12.30;7.32;;;27.60;99.90;;;;;;5029607;28;20068;-66
2022/08/17 09:28:18;;;;;;;9.52;7.28;;;27.80;99.90;;;;;;5028599;28;20137;-66
2022/08/17 09:30:48;;;;;;;10.23;7.68;;;28.00;99.90;;;;;;5029248;28;20033;-66
2022/08/17 09:33:25;;;;;;;10.93;6.93;;;28.30;99.90;;;;;;5027593;28;20033;-66
2022/08/17 09:35:57;;;;;;;15.63;8.00;;;28.40;99.90;;;;;;5032956;28;20206;-67
2022/08/17 09:38:48;;;;;;;10.80;8.73;;;28.30;99.90;;;;;;5048909;28;20041;-66
2022/08/17 09:41:23;;;;;;;11.93;7.68;;;28.20;99.90;;;;;;5035431;28;20064;-67
2022/08/17 09:44:12;;;;;;;11.85;7.97;;;28.20;99.90;;;;;;5051570;28;20033;-67
2022/08/17 09:47:07;;;;;;;13.20;7.97;;;28.20;99.90;;;;;;5048740;28;20057;-68
2022/08/17 09:49:41;;;;;;;12.68;8.75;;;28.20;99.90;;;;;;5050959;28;20040;-67
2022/08/17 09:52:17;;;;;;;11.68;7.50;;;28.20;99.90;;;;;;5051062;28;20029;-67
2022/08/17 09:54:45;;;;;;;12.25;7.85;;;28.30;99.90;;;;;;5052896;28;20097;-67
2022/08/17 09:57:25;;;;;;;11.30;7.85;;;28.20;99.90;;;;;;5038860;28;20174;-67
2022/08/17 10:00:14;;;;;;;14.68;8.60;;;28.10;99.90;;;;;;5033042;28;20484;-67
2022/08/17 10:03:01;;;;;;;13.00;8.13;;;28.10;99.90;;;;;;5032954;28;20057;-67
2022/08/17 10:06:25;;;;;;;11.93;7.65;;;28.20;99.90;;;;;;5032645;28;20063;-67
2022/08/17 10:09:28;;;;;;;11.90;7.80;;;28.20;99.90;;;;;;5049652;28;20642;-68
2022/08/17 10:12:30;;;;;;;13.15;7.97;;;28.40;99.90;;;;;;5021029;28;20118;-67
2022/08/17 10:15:26;;;;;;;12.35;8.15;;;28.50;99.90;;;;;;5038948;28;20034;-67
2022/08/17 10:18:09;;;;;;;14.50;8.75;;;28.60;99.90;;;;;;5043819;28;20071;-66
2022/08/17 10:26:11;;;;;;;13.95;8.27;;;28.90;99.90;;;;;;5052807;28;20029;-66
2022/08/17 10:26:30;;;;;;;9.40;7.40;;;29.20;99.90;;;;;;5042121;28;20056;-66
2022/08/17 10:29:11;;;;;;;16.27;8.65;;;29.40;99.90;;;;;;5032240;28;20086;-67
2022/08/17 10:31:46;;;;;;;10.48;8.02;;;29.50;99.90;;;;;;5032184;28;20029;-68
2022/08/17 10:34:29;;;;;;;12.70;8.48;;;29.80;99.90;;;;;;5030689;28;20033;-66
2022/08/17 10:37:06;;;;;;;12.38;9.50;;;30.20;99.90;;;;;;5042359;28;20029;-66
2022/08/17 10:39:32;;;;;;;13.45;8.48;;;30.50;99.90;;;;;;5049997;28;20444;-66
2022/08/17 10:42:11;;;;;;;14.27;8.83;;;30.70;99.90;;;;;;5039216;28;20049;-66
2022/08/17 10:44:56;;;;;;;10.18;8.32;;;30.80;99.90;;;;;;5032021;28;20039;-66
2022/08/17 10:47:25;;;;;;;12.80;7.97;;;31.00;99.90;;;;;;5042501;28;20370;-66
2022/08/17 10:49:56;;;;;;;13.85;7.95;;;31.10;99.90;;;;;;5051732;28;20171;-66
2022/08/17 10:52:22;;;;;;;14.05;8.85;;;31.10;99.90;;;;;;5051730;28;20033;-67
2022/08/17 10:54:50;;;;;;;13.75;8.45;;;31.10;99.90;;;;;;5051057;28;20025;-66
2022/08/17 10:57:43;;;;;;;12.25;8.77;;;31.30;99.90;;;;;;5032023;28;20029;-67
2022/08/17 11:00:12;;;;;;;16.63;9.20;;;31.80;99.90;;;;;;5032372;28;20536;-67
2022/08/17 11:02:48;;;;;;;10.82;8.45;;;32.10;99.90;;;;;;5031880;28;20037;-67
2022/08/17 11:05:44;;;;;;;11.60;8.60;;;31.70;99.90;;;;;;5031857;28;20033;-67
2022/08/17 11:08:28;;;;;;;13.75;8.43;;;31.20;99.90;;;;;;5050359;28;20492;-67
2022/08/17 11:11:34;;;;;;;14.15;8.80;;;31.10;99.90;;;;;;5043052;28;20034;-67
2022/08/17 11:14:07;;;;;;;16.42;9.00;;;31.30;99.90;;;;;;5031094;28;20128;-67
2022/08/17 11:16:51;;;;;;;15.80;9.57;;;31.50;99.90;;;;;;5033641;28;20024;-67
2022/08/17 11:19:33;;;;;;;16.83;9.52;;;31.30;99.90;;;;;;5032360;28;20096;-67
2022/08/17 11:22:28;;;;;;;13.77;8.60;;;31.10;99.90;;;;;;5031467;28;20025;-67
2022/08/17 11:24:55;;;;;;;13.00;8.40;;;30.90;99.90;;;;;;5036386;28;20033;-67
2022/08/17 11:27:32;;;;;;;16.98;8.85;;;30.90;99.90;;;;;;5051310;28;20037;-67
2022/08/17 11:30:05;;;;;;;12.85;8.60;;;31.10;99.90;;;;;;5039817;28;20033;-67
2022/08/17 11:32:42;;;;;;;14.00;7.70;;;31.40;99.90;;;;;;5031136;28;20497;-67
2022/08/17 11:35:19;;;;;;;11.65;7.97;;;31.70;99.90;;;;;;5031345;28;20444;-67
2022/08/17 11:37:45;;;;;;;13.02;8.18;;;31.80;99.90;;;;;;5032454;28;20034;-67
2022/08/17 11:40:25;;;;;;;13.65;7.70;;;31.80;99.90;;;;;;5044644;28;20045;-66
2022/08/17 11:42:56;;;;;;;12.82;8.70;;;31.80;99.90;;;;;;5030656;28;20045;-66
2022/08/17 11:45:30;;;;;;;11.30;7.90;;;31.80;99.90;;;;;;5030988;28;20461;-67
2022/08/17 11:54:03;;;;;;;13.40;7.32;;;30.60;99.90;;;;;;5030938;28;20349;-66
2022/08/17 11:56:40;;;;;;;11.63;7.53;;;30.20;99.90;;;;;;5031876;28;20025;-67
2022/08/17 11:59:35;;;;;;;10.65;7.38;;;30.10;99.90;;;;;;5030653;28;20025;-67
2022/08/17 12:02:03;;;;;;;12.73;8.10;;;30.30;99.90;;;;;;5030860;28;20032;-66
2022/08/17 12:04:33;;;;;;;11.18;7.50;;;30.40;99.90;;;;;;5038400;28;20036;-67
2022/08/17 12:07:21;;;;;;;13.52;8.05;;;30.50;99.90;;;;;;5048090;28;20029;-67
2022/08/17 12:09:49;;;;;;;12.77;8.25;;;30.60;99.90;;;;;;5050610;28;20076;-67
2022/08/17 12:12:19;;;;;;;11.63;7.47;;;30.60;99.90;;;;;;5032391;28;20145;-68
2022/08/17 12:14:56;;;;;;;16.77;7.63;;;30.50;99.90;;;;;;5030368;28;20219;-68
2022/08/17 12:17:25;;;;;;;13.68;7.65;;;30.30;99.90;;;;;;5030527;28;20456;-66
2022/08/17 12:20:11;;;;;;;14.55;7.72;;;30.20;99.90;;;;;;5039259;28;20115;-67
2022/08/17 12:23:02;;;;;;;13.40;7.40;;;30.00;99.90;;;;;;5050137;28;20453;-68
2022/08/17 12:25:46;;;;;;;11.10;6.85;;;30.00;99.90;;;;;;5048101;28;20072;-67
2022/08/17 12:28:28;;;;;;;12.73;7.45;;;30.00;99.90;;;;;;5030224;28;20033;-66
2022/08/17 12:30:58;;;;;;;12.25;7.65;;;30.00;99.90;;;;;;5030328;28;20061;-67
2022/08/17 12:33:26;;;;;;;12.38;7.55;;;29.80;99.90;;;;;;5030173;28;20045;-67
2022/08/17 12:36:04;;;;;;;12.38;7.53;;;29.60;99.90;;;;;;5046108;28;20025;-68
2022/08/17 12:38:34;;;;;;;12.00;7.65;;;29.30;99.90;;;;;;5050173;28;20079;-67
2022/08/17 12:41:25;;;;;;;15.15;7.50;;;29.20;99.90;;;;;;5044629;28;20107;-67
2022/08/17 12:44:14;;;;;;;14.75;7.63;;;29.10;99.90;;;;;;5029756;28;20030;-67
2022/08/17 12:47:02;;;;;;;10.45;7.65;;;28.90;99.90;;;;;;5030586;28;20046;-67
2022/08/17 12:49:36;;;;;;;12.27;7.32;;;28.90;99.90;;;;;;5032165;28;20105;-67
2022/08/17 12:52:13;;;;;;;12.50;7.35;;;29.00;99.90;;;;;;5049851;28;20147;-68
2022/08/17 12:54:54;;;;;;;10.55;7.05;;;29.00;99.90;;;;;;5050302;28;20504;-67
2022/08/17 12:57:31;;;;;;;10.82;7.32;;;28.70;99.90;;;;;;5034605;28;20030;-67
2022/08/17 13:00:28;;;;;;;11.20;7.28;;;28.60;99.90;;;;;;5029819;28;20063;-67
2022/08/17 13:03:04;;;;;;;10.05;7.15;;;28.50;99.90;;;;;;5030575;28;20045;-67
2022/08/17 13:05:36;;;;;;;13.48;8.55;;;28.50;99.90;;;;;;5038936;28;20159;-67
2022/08/17 13:08:16;;;;;;;10.88;7.55;;;28.50;99.90;;;;;;5048391;28;20032;-66
2022/08/17 13:10:42;;;;;;;12.13;7.45;;;28.50;99.90;;;;;;5053416;28;20036;-65
2022/08/17 13:13:21;;;;;;;;;;;28.50;99.90;;;;;;5052192;28;20040;-67
2022/08/17 13:16:13;;;;;;;9.80;7.28;;;28.50;99.90;;;;;;5034252;28;20308;-67
2022/08/17 13:18:44;;;;;;;11.90;7.85;;;28.40;99.90;;;;;;5032163;28;20037;-67
2022/08/17 13:21:18;;;;;;;9.30;6.90;;;28.20;99.90;;;;;;5045609;28;20392;-66
2022/08/17 13:24:09;;;;;;;12.82;8.00;;;28.10;99.90;;;;;;5053631;28;20086;-67
2022/08/17 13:27:01;;;;;;;13.10;8.25;;;27.90;99.90;;;;;;5051232;28;20489;-67
2022/08/17 13:29:37;;;;;;;10.98;7.45;;;27.80;99.90;;;;;;5034580;28;20041;-67
2022/08/17 13:32:03;;;;;;;9.60;7.10;;;27.70;99.90;;;;;;5033811;28;20053;-67
2022/08/17 13:34:39;;;;;;;9.17;6.83;;;27.80;99.90;;;;;;5033870;28;20037;-66
2022/08/17 13:37:25;;;;;;;10.57;7.75;;;27.80;99.90;;;;;;5051384;28;20373;-66
2022/08/17 13:39:53;;;;;;;9.32;6.75;;;27.80;99.90;;;;;;5053262;28;20048;-66
2022/08/17 13:42:41;;;;;;;11.32;6.78;;;27.80;99.90;;;;;;5044330;28;20029;-66
2022/08/17 13:45:26;;;;;;;14.63;7.78;;;27.80;99.90;;;;;;5033531;28;20033;-67
2022/08/17 13:48:16;;;;;;;11.48;6.82;;;27.70;99.90;;;;;;5041821;28;20029;-67